Logo AVAMET
Benvolgut visitant, si us plau, ingressa Recuperar contrasenya
AVAMET paisatges

Vila-real Col·legi Santa Maria

Dades diàries. Acumulats / Últims 30 dies disponibles

Data Temperatura (°C) Humitat rel. (%) Pressió rel. (hPa) Vent (km/h) Precipitació
Mínima Mitjana Màxima Amplitud
tèrmica
Mínima Mitjana Màxima Mínima Mitjana Màxima Predom. Mitjana Ràfega
màxima
Total
(mm)
Índex-n
Mínima Mitjana Màxima Mínima Mitjana Màxima n
0 a 1
P0 max
mm 5'
Dades mensuals acumulades fins l'últim dia disponible
01/2021 1,2 3,6 6,4 7,4 6,0 12,1 22,1 20,9 29 62 91 1.005 1.017 1.029   7,5 40,2 30,4
Dades anuals acumulades fins l'últim dia disponible
2021 1,2 3,6 6,4 7,4 6,0 12,1 22,1 20,9 29 62 91 1.005 1.017 1.029   7,5 40,2 30,4
Últims 30 dies disponibles
18-01-2021 6,3     10,7     14,7 8,4 55 72 87 1.026 1.027 1.029 NNW 5,3 25,7 0,0
17-01-2021 6,4     13,7     22,1 15,7 29 42 60 1.023 1.025 1.028 NNW 6,6 29,0 0,0
16-01-2021 4,5     8,8     14,1 9,6 38 59 77 1.023 1.026 1.028 NNW 5,6 24,1 0,0
15-01-2021 5,0     9,8     15,2 10,2 40 57 79 1.022 1.023 1.025 NNW 6,4 35,4 0,0
14-01-2021 3,1     7,9     13,7 10,6 44 66 82 1.022 1.024 1.027 NNW 5,3 29,0 0,0
13-01-2021 3,2     7,8     13,7 10,5 41 60 75 1.027 1.028 1.029 NNW 7,1 25,7 0,0
12-01-2021 2,2     6,0     12,0 9,8 31 54 75 1.026 1.027 1.028 NNW 8,0 32,2 0,0
11-01-2021 3,1     5,6     10,7 7,6 49 64 75 1.018 1.021 1.026 NNW 9,2 30,6 0,0
10-01-2021 4,4     6,2     8,2 3,8 64 78 88 1.008 1.012 1.018 NNE 9,7 33,8 0,6
09-01-2021 2,0     4,4     6,0 4,0 84 88 91 1.005 1.007 1.010 NNE 13,8 38,6 17,8 0,42 0,80
08-01-2021 3,2     5,0     7,1 3,9 68 81 89 1.010 1.013 1.015 NNE 9,5 27,4 2,8 0,20
07-01-2021 3,8     5,6     9,1 5,3 49 74 89 1.012 1.014 1.016 NNE 8,5 30,6 7,8 0,14 0,30
06-01-2021 2,1     5,6     10,5 8,4 46 62 78 1.013 1.015 1.017 NNW 7,1 25,7 0,0
05-01-2021 1,2     5,8     10,3 9,1 41 57 68 1.011 1.012 1.014 NNW 7,7 25,7 0,0
04-01-2021 2,3     7,3     12,8 10,5 32 51 70 1.009 1.011 1.013 NNW 6,4 33,8 0,0
03-01-2021 2,8     7,7     13,4 10,6 32 46 55 1.011 1.012 1.013 NNW 4,8 32,2 0,0
02-01-2021 4,2     7,2     11,0 6,8 41 50 68 1.007 1.009 1.011 NW 8,4 29,0 0,0
01-01-2021 4,6     8,4     13,7 9,1 38 63 80 1.005 1.007 1.009 NW 5,5 40,2 1,4 0,37 0,40
31-12-2020 5,8     10,3     16,3 10,5 38 52 64 1.009 1.013 1.017 O 5,7 24,1 0,0
30-12-2020 6,6     10,2     15,0 8,4 36 47 54 1.008 1.014 1.017 NW 8,4 43,5 0,0
29-12-2020 4,9     9,8     14,9 10,0 35 52 71 1.002 1.004 1.008 WNW 8,2 40,2 0,0
28-12-2020 7,9     11,7     15,7 7,8 31 47 69 994 999 1.003 SW 15,4 53,1 0,0
27-12-2020 1,7     8,5     14,5 12,8 34 49 67 1.000 1.012 1.022 NNW 5,8 41,8 0,0
26-12-2020 3,7     8,7     14,9 11,2 27 43 57 1.023 1.025 1.027 NNW 5,8 30,6 0,0
25-12-2020 6,2     10,1     13,2 7,0 20 46 85 1.021 1.023 1.027 NNE 12,4 49,9 0,0
24-12-2020 8,9     12,2     15,4 6,5 67 79 94 1.021 1.022 1.023 NNW 5,3 27,4 0,0
23-12-2020 8,1     11,6     16,0 7,9 74 87 95 1.021 1.023 1.026 NNW 3,7 19,3 0,0
22-12-2020 8,8     12,1     16,5 7,7 65 77 88 1.026 1.027 1.029 NNW 4,5 20,9 0,0
21-12-2020 8,0     11,9     15,4 7,4 58 70 82 1.026 1.028 1.029 NNW 3,4 19,3 0,0
20-12-2020 8,3     13,0     17,4 9,1 55 75 89 1.020 1.023 1.028 NNW 3,7 27,4 0,0
Últims 13 mesos disponibles
12/2020 1,7 7,7 12,8 12,1 13,2 16,2 20,4 18,7 43 62 87 996 1.014 1.028 NNW 6,4 53,1 1,8
11/2020 7,1 11,5 15,7 15,2 14,8 18,7 22,7 15,6 57 80 92 1.007 1.022 1.029 NNW 5,5 62,2 140,2
11/2019 7,6 13,2 19,6 17,9 15,1 20,2 28,7 21,1 38 47 74 999 1.009 1.016 W 3,5 56,3 0,4
10/2019 11,3 16,6 20,7 21,5 15,9 23,5 28,0 16,7 42 64 85 1.007 1.016 1.022 SE 2,6 45,1
07/2019 21,2 22,8 25,3 26,9 27,4 29,8 33,6 12,4 49 67 80 1.005 1.014 1.021 SE 5,1 49,9
06/2019 11,8 18,2 23,6 22,7 20,4 26,0 35,9 24,1 41 65 83 1.011 1.016 1.022 SE 6,0 62,8
05/2019 10,0 14,4 17,8 18,5 17,7 21,9 28,6 18,6 55 68 91 1.011 1.017 1.025 S 5,3 64,4
04/2019 8,3 11,8 14,9 15,7 15,7 19,1 26,3 18,0 0 19 80 0 303 1.016 SE 7,2 64,4
03/2019 7,8 10,0 13,3 14,8 12,9 18,9 25,5 17,7 45 61 86 1.010 1.023 1.030 WNW 5,5 53,1
02/2019 2,9 7,3 11,2 11,9 12,8 17,0 22,7 19,8 42 68 78 1.002 1.027 1.034 WNW 5,8 69,2
01/2019 3,8 6,5 10,5 11,0 12,3 16,2 22,7 18,9 36 59 78 1.002 1.020 1.031 WNW 6,8 69,2
12/2018 5,9 8,8 12,2 12,7 12,7 17,6 22,7 16,8 52 73 87 1.008 1.025 1.031 WNW 4,3 54,7 8,2
11/2018 7,8 11,0 15,8 14,4 14,7 18,8 22,3 14,5 54 73 87 1.002 1.015 1.024 WNW 5,2 54,7 1,0
Tots els anys disponibles
2017 1,2 13,5 28,8 17,3 8,2 21,2 33,9 32,7 NW 5,8 78,9 301,8
2016 4,3 13,2 27,2 16,7 10,8 20,6 31,9 27,6 NW 6,5 64,4 327,8
2015 5,0 15,6 26,9 19,3 13,7 23,2 34,7 29,7 NW 4,4 64,4 173,6
Temperatura (°C)
Humitat relativa (%)
Velocitat del vent i ràfega màxima (km/h)
Direcció del vent (°)
Pressió (hPa)
Precipitació (mm)
Nota sobre les dades: s'avisa a l'usuari de la provisionalitat i no oficialitat d'aquestes dades
Logo AVAMET blanc
Web allotjada a Sollutia
Llicència de Creative CommonsLa web d'AVAMET i els seus continguts estan subjectes a una llicència de
Reconeixement - No Comercial - Compartir igual
Avís legal - Política de privacitat - Política de cookies
NOVES ESTACIONS: Rossell - la Vila (Soci), Onda - CR Cota 220 (Soci), Artana (Ajuntament/Soci), Sax (Soci), Benicarló - Sant Gregori (Soci), Riba-roja de Túria - la Reva (Soci), Castielfabib - Arroyo Cerezo (Pròpia d'AVAMET), Tavernes de la Valldigna - Ull del Bou/Cambro (Soci), Chella - Casa Conde (Soci), El Genovés (Inforatge) - - -